createdAt,value
2018-07-08T00:00:19.760Z,82.07
2018-07-08T00:01:19.763Z,82.26
2018-07-08T00:02:19.764Z,82.84
2018-07-08T00:03:19.756Z,82.45
2018-07-08T00:04:19.753Z,82.84
2018-07-08T00:05:19.758Z,82.70
2018-07-08T00:06:19.756Z,82.41
2018-07-08T00:07:19.758Z,83.37
2018-07-08T00:08:19.756Z,83.08
2018-07-08T00:09:19.747Z,83.37
2018-07-08T00:10:19.746Z,83.37
2018-07-08T00:11:19.744Z,83.27
2018-07-08T00:12:19.742Z,83.08
2018-07-08T00:13:19.744Z,83.75
2018-07-08T00:14:19.743Z,83.56
2018-07-08T00:15:19.741Z,83.56
2018-07-08T00:16:19.738Z,83.33
2018-07-08T00:17:19.733Z,84.23
2018-07-08T00:18:19.731Z,84.09
2018-07-08T00:19:19.734Z,83.91
2018-07-08T00:20:19.735Z,84.19
2018-07-08T00:21:19.725Z,84.00
2018-07-08T00:22:19.726Z,84.00
2018-07-08T00:23:19.722Z,83.52
2018-07-08T00:24:19.723Z,83.91
2018-07-08T00:25:19.723Z,83.71
2018-07-08T00:26:19.724Z,83.91
2018-07-08T00:27:19.721Z,84.15
2018-07-08T00:28:19.718Z,84.28
2018-07-08T00:29:19.711Z,84.53
2018-07-08T00:30:19.710Z,84.63
2018-07-08T00:31:19.711Z,84.72
2018-07-08T00:32:19.705Z,84.34
2018-07-08T00:33:19.709Z,84.44
2018-07-08T00:34:19.708Z,84.91
2018-07-08T00:35:19.701Z,85.30
2018-07-08T00:36:19.699Z,85.39
2018-07-08T00:37:19.700Z,85.58
2018-07-08T00:38:19.699Z,85.58
2018-07-08T00:39:19.699Z,85.30
2018-07-08T00:40:19.696Z,85.11
2018-07-08T00:41:19.691Z,85.21
2018-07-08T00:42:19.687Z,85.11
2018-07-08T00:43:19.685Z,85.21
2018-07-08T00:44:19.683Z,85.21
2018-07-08T00:45:19.686Z,85.11
2018-07-08T00:46:19.686Z,85.11
2018-07-08T00:47:19.681Z,85.68
2018-07-08T00:48:19.678Z,85.11
2018-07-08T00:49:19.672Z,85.01
2018-07-08T00:50:19.670Z,84.82
2018-07-08T00:51:19.672Z,84.72
2018-07-08T00:52:19.671Z,85.39
2018-07-08T00:53:19.663Z,85.21
2018-07-08T00:54:19.661Z,85.58
2018-07-08T00:55:19.661Z,85.58
2018-07-08T00:56:19.658Z,85.30
2018-07-08T00:57:19.660Z,85.39
2018-07-08T00:58:19.658Z,85.74
2018-07-08T00:59:19.655Z,85.49
2018-07-08T01:00:19.652Z,85.39
2018-07-08T01:01:19.648Z,85.21
2018-07-08T01:02:19.644Z,85.49
2018-07-08T01:03:19.642Z,85.39
2018-07-08T01:04:19.639Z,85.64
2018-07-08T01:05:19.642Z,85.39
2018-07-08T01:06:19.641Z,85.58
2018-07-08T01:07:19.637Z,85.64
2018-07-08T01:08:19.631Z,84.97
2018-07-08T01:09:19.634Z,85.25
2018-07-08T01:10:19.633Z,85.68
2018-07-08T01:11:19.629Z,85.45
2018-07-08T01:12:19.625Z,85.45
2018-07-08T01:13:19.622Z,85.54
2018-07-08T01:14:19.616Z,85.68
2018-07-08T01:15:19.615Z,85.58
2018-07-08T01:16:19.611Z,85.39
2018-07-08T01:17:19.615Z,85.49
2018-07-08T01:18:19.611Z,85.45
2018-07-08T01:19:19.611Z,85.01
2018-07-08T01:20:19.608Z,85.16
2018-07-08T01:21:19.599Z,85.74
2018-07-08T01:22:19.599Z,85.54
2018-07-08T01:23:19.607Z,85.39
2018-07-08T01:24:19.599Z,85.30
2018-07-08T01:25:19.590Z,84.97
2018-07-08T01:26:19.587Z,85.25
2018-07-08T01:27:19.585Z,85.25
2018-07-08T01:28:19.586Z,85.93
2018-07-08T01:29:19.586Z,85.45
2018-07-08T01:30:19.582Z,85.93
2018-07-08T01:31:19.582Z,85.64
2018-07-08T01:32:19.579Z,86.02
2018-07-08T01:33:19.574Z,85.64
2018-07-08T01:34:19.567Z,85.74
2018-07-08T01:35:19.567Z,85.93
2018-07-08T01:36:19.563Z,85.45
2018-07-08T01:37:19.567Z,85.93
2018-07-08T01:38:19.564Z,85.93
2018-07-08T01:39:19.559Z,85.83
2018-07-08T01:40:19.553Z,86.21
2018-07-08T01:41:19.559Z,86.02
2018-07-08T01:42:19.556Z,85.74
2018-07-08T01:43:19.551Z,85.83
2018-07-08T01:44:19.581Z,85.93
2018-07-08T01:45:19.541Z,85.74
2018-07-08T01:46:19.538Z,86.41
2018-07-08T01:47:19.537Z,86.60
2018-07-08T01:48:19.533Z,85.83
2018-07-08T01:49:19.535Z,86.02
2018-07-08T01:50:19.533Z,86.31
2018-07-08T01:51:19.531Z,85.93
2018-07-08T01:52:19.527Z,86.41
2018-07-08T01:53:19.521Z,86.21
2018-07-08T01:54:19.523Z,86.12
2018-07-08T01:55:19.520Z,86.02
2018-07-08T01:56:19.519Z,86.31
2018-07-08T01:57:19.509Z,86.50
2018-07-08T01:58:19.508Z,86.69
2018-07-08T01:59:19.505Z,86.21
2018-07-08T02:00:19.500Z,86.12
2018-07-08T02:01:19.504Z,86.50
2018-07-08T02:02:19.502Z,86.94
2018-07-08T02:03:19.498Z,86.94
2018-07-08T02:04:19.500Z,87.23
2018-07-08T02:05:19.487Z,87.23
2018-07-08T02:06:19.485Z,86.84
2018-07-08T02:07:19.484Z,86.94
2018-07-08T02:08:19.479Z,87.13
2018-07-08T02:09:19.482Z,87.23
2018-07-08T02:10:19.481Z,87.03
2018-07-08T02:11:19.472Z,87.23
2018-07-08T02:12:19.468Z,87.23
2018-07-08T02:13:19.470Z,87.61
2018-07-08T02:14:19.470Z,87.13
2018-07-08T02:15:19.465Z,87.23
2018-07-08T02:16:19.461Z,87.51
2018-07-08T02:17:19.461Z,87.51
2018-07-08T02:18:19.451Z,87.23
2018-07-08T02:19:19.449Z,87.23
2018-07-08T02:20:19.447Z,88.18
2018-07-08T02:21:19.449Z,87.76
2018-07-08T02:22:19.446Z,87.85
2018-07-08T02:23:19.444Z,87.85
2018-07-08T02:24:19.440Z,87.85
2018-07-08T02:25:19.431Z,87.76
2018-07-08T02:26:19.429Z,88.13
2018-07-08T02:27:19.433Z,88.04
2018-07-08T02:28:19.430Z,88.71
2018-07-08T02:29:19.420Z,88.43
2018-07-08T02:30:19.416Z,87.85
2018-07-08T02:31:19.414Z,88.81
2018-07-08T02:32:19.413Z,88.71
2018-07-08T02:33:19.419Z,88.62
2018-07-08T02:34:19.411Z,88.81
2018-07-08T02:35:19.406Z,88.71
2018-07-08T02:36:19.403Z,89.09
2018-07-08T02:37:19.398Z,88.81
2018-07-08T02:38:19.394Z,88.81
2018-07-08T02:39:19.394Z,88.52
2018-07-08T02:40:19.386Z,88.62
2018-07-08T02:41:19.389Z,88.71
2018-07-08T02:42:19.387Z,89.24
2018-07-08T02:43:19.381Z,89.34
2018-07-08T02:44:19.377Z,89.05
2018-07-08T02:45:19.379Z,89.34
2018-07-08T02:46:19.376Z,89.34
2018-07-08T02:47:19.372Z,89.43
2018-07-08T02:48:19.366Z,89.34
2018-07-08T02:49:19.361Z,89.34
2018-07-08T02:50:19.356Z,90.01
2018-07-08T02:51:19.357Z,90.01
2018-07-08T02:52:19.350Z,89.24
2018-07-08T02:53:19.359Z,89.53
2018-07-08T02:54:19.348Z,89.81
2018-07-08T02:55:19.346Z,89.81
2018-07-08T02:56:19.342Z,89.72
2018-07-08T02:57:19.333Z,90.30
2018-07-08T02:58:19.333Z,90.10
2018-07-08T02:59:19.333Z,90.58
2018-07-08T03:00:19.330Z,90.20
2018-07-08T03:01:19.323Z,90.10
2018-07-08T03:02:19.317Z,90.39
2018-07-08T03:03:19.317Z,90.30
2018-07-08T03:04:19.315Z,90.77
2018-07-08T03:05:19.312Z,90.58
2018-07-08T03:06:19.308Z,90.48
2018-07-08T03:07:19.307Z,90.58
2018-07-08T03:08:19.302Z,90.58
2018-07-08T03:09:19.336Z,90.39
2018-07-08T03:10:19.295Z,90.20
2018-07-08T03:11:19.287Z,90.39
2018-07-08T03:12:19.283Z,90.58
2018-07-08T03:13:19.287Z,90.77
2018-07-08T03:14:19.282Z,91.16
2018-07-08T03:15:19.274Z,90.77
2018-07-08T03:16:19.270Z,90.96
2018-07-08T03:17:19.271Z,91.06
2018-07-08T03:18:19.272Z,91.16
2018-07-08T03:19:19.266Z,90.87
2018-07-08T03:20:19.263Z,90.87
2018-07-08T03:21:19.254Z,90.96
2018-07-08T03:22:19.254Z,91.44
2018-07-08T03:23:19.246Z,91.73
2018-07-08T03:24:19.244Z,91.06
2018-07-08T03:25:19.245Z,91.16
2018-07-08T03:26:19.244Z,90.77
2018-07-08T03:27:19.236Z,91.16
2018-07-08T03:28:19.232Z,91.16
2018-07-08T03:29:19.231Z,91.06
2018-07-08T03:30:19.222Z,91.06
2018-07-08T03:31:19.223Z,90.96
2018-07-08T03:32:19.219Z,91.16
2018-07-08T03:33:19.241Z,90.77
2018-07-08T03:34:19.210Z,90.39
2018-07-08T03:35:19.205Z,90.48
2018-07-08T03:36:19.202Z,90.58
2018-07-08T03:37:19.203Z,90.77
2018-07-08T03:38:19.200Z,90.30
2018-07-08T03:39:19.195Z,90.96
2018-07-08T03:40:19.193Z,90.87
2018-07-08T03:41:19.184Z,91.16
2018-07-08T03:42:19.185Z,90.77
2018-07-08T03:43:19.177Z,90.77
2018-07-08T03:44:19.174Z,90.58
2018-07-08T03:45:19.173Z,90.77
2018-07-08T03:46:19.171Z,91.35
2018-07-08T03:47:19.163Z,91.25
2018-07-08T03:48:19.162Z,90.96
2018-07-08T03:49:19.159Z,91.25
2018-07-08T03:50:19.157Z,90.87
2018-07-08T03:51:19.155Z,90.58
2018-07-08T03:52:19.151Z,90.87
2018-07-08T03:53:19.142Z,91.06
2018-07-08T03:54:19.139Z,91.16
2018-07-08T03:55:19.137Z,91.73
2018-07-08T03:56:19.132Z,91.44
2018-07-08T03:57:19.134Z,91.25
2018-07-08T03:58:19.132Z,91.92
2018-07-08T03:59:19.127Z,90.77
2018-07-08T04:00:19.122Z,90.96
2018-07-08T04:01:19.114Z,90.77
2018-07-08T04:02:19.114Z,91.53
2018-07-08T04:03:19.115Z,91.53
2018-07-08T04:04:19.108Z,90.67
2018-07-08T04:05:19.099Z,91.44
2018-07-08T04:06:19.096Z,91.73
2018-07-08T04:07:19.093Z,90.58
2018-07-08T04:08:19.092Z,90.87
2018-07-08T04:09:19.091Z,90.96
2018-07-08T04:10:19.090Z,90.77
2018-07-08T04:11:19.083Z,90.58
2018-07-08T04:12:19.078Z,90.63
2018-07-08T04:13:19.071Z,90.82
2018-07-08T04:14:19.069Z,90.34
2018-07-08T04:15:19.132Z,90.44
2018-07-08T04:16:19.062Z,89.67
2018-07-08T04:17:19.064Z,90.24
2018-07-08T04:18:19.059Z,89.67
2018-07-08T04:19:19.052Z,90.24
2018-07-08T04:20:19.048Z,89.86
2018-07-08T04:21:19.050Z,89.86
2018-07-08T04:22:19.045Z,90.34
2018-07-08T04:23:19.042Z,89.86
2018-07-08T04:24:19.038Z,90.34
2018-07-08T04:25:19.031Z,90.44
2018-07-08T04:26:19.028Z,89.86
2018-07-08T04:27:19.025Z,90.53
2018-07-08T04:28:19.021Z,90.05
2018-07-08T04:29:19.023Z,90.44
2018-07-08T04:30:19.066Z,90.53
2018-07-08T04:31:19.019Z,89.86
2018-07-08T04:32:19.013Z,89.95
2018-07-08T04:33:19.005Z,89.86
2018-07-08T04:34:19.006Z,89.76
2018-07-08T04:35:19.005Z,90.48
2018-07-08T04:36:19.000Z,90.58
2018-07-08T04:37:18.995Z,89.90
2018-07-08T04:38:18.990Z,89.43
2018-07-08T04:39:18.996Z,89.52
2018-07-08T04:40:18.985Z,89.43
2018-07-08T04:41:18.986Z,89.33
2018-07-08T04:42:18.982Z,89.33
2018-07-08T04:43:18.980Z,89.33
2018-07-08T04:44:18.975Z,88.66
2018-07-08T04:45:18.969Z,89.33
2018-07-08T04:46:18.966Z,89.23
2018-07-08T04:47:18.963Z,89.37
2018-07-08T04:48:18.963Z,89.28
2018-07-08T04:49:19.022Z,89.37
2018-07-08T04:50:18.959Z,89.18
2018-07-08T04:51:18.952Z,89.66
2018-07-08T04:52:18.949Z,89.37
2018-07-08T04:53:18.952Z,89.28
2018-07-08T04:54:18.949Z,89.18
2018-07-08T04:55:18.946Z,88.70
2018-07-08T04:56:18.941Z,89.47
2018-07-08T04:57:18.935Z,89.37
2018-07-08T04:58:18.932Z,88.94
2018-07-08T04:59:18.931Z,88.37
2018-07-08T05:00:18.926Z,88.65
2018-07-08T05:01:18.929Z,87.98
2018-07-08T05:02:18.926Z,87.88
2018-07-08T05:03:18.925Z,87.50
2018-07-08T05:04:18.922Z,88.12
2018-07-08T05:05:18.916Z,87.55
2018-07-08T05:06:18.914Z,87.59
2018-07-08T05:07:18.917Z,87.30
2018-07-08T05:08:18.915Z,86.72
2018-07-08T05:09:18.909Z,86.68
2018-07-08T05:10:18.908Z,85.18
2018-07-08T05:11:18.907Z,85.08
2018-07-08T05:12:18.906Z,84.07
2018-07-08T05:13:18.910Z,83.69
2018-07-08T05:14:18.910Z,83.06
2018-07-08T05:15:18.912Z,81.75
2018-07-08T05:16:18.911Z,80.35
2018-07-08T05:17:18.909Z,79.03
2018-07-08T05:18:18.909Z,77.73
2018-07-08T05:19:18.910Z,76.13
2018-07-08T05:20:18.956Z,74.05
2018-07-08T05:21:18.919Z,72.44
2018-07-08T05:22:18.921Z,70.64
2018-07-08T05:23:18.925Z,70.04
2018-07-08T05:24:18.919Z,68.33
2018-07-08T05:25:18.927Z,67.40
2018-07-08T05:26:18.930Z,65.69
2018-07-08T05:27:18.934Z,63.89
2018-07-08T05:28:18.940Z,62.56
2018-07-08T05:29:18.935Z,61.59
2018-07-08T05:30:18.941Z,60.78
2018-07-08T05:31:18.944Z,59.64
2018-07-08T05:32:18.946Z,58.77
2018-07-08T05:33:18.956Z,58.12
2018-07-08T05:34:18.959Z,56.60
2018-07-08T05:35:18.964Z,56.21
2018-07-08T05:36:18.968Z,55.41
2018-07-08T05:37:18.972Z,54.92
2018-07-08T05:38:18.975Z,54.94
2018-07-08T05:39:18.984Z,54.29
2018-07-08T05:40:18.987Z,53.83
2018-07-08T05:41:18.988Z,53.08
2018-07-08T05:42:18.993Z,52.31
2018-07-08T05:43:19.003Z,51.87
2018-07-08T05:44:19.004Z,52.35
2018-07-08T05:45:19.016Z,52.37
2018-07-08T05:46:19.021Z,52.25
2018-07-08T05:47:19.028Z,52.67
2018-07-08T05:48:19.031Z,51.18
2018-07-08T05:49:19.033Z,52.42
2018-07-08T05:50:19.118Z,53.87
2018-07-08T05:51:19.047Z,54.86
2018-07-08T05:52:19.051Z,54.53
2018-07-08T05:53:19.061Z,53.69
2018-07-08T05:54:19.068Z,52.79
2018-07-08T05:55:19.070Z,51.67
2018-07-08T05:56:19.076Z,50.73
2018-07-08T05:57:19.086Z,49.19
2018-07-08T05:58:19.093Z,48.68
2018-07-08T05:59:19.100Z,48.88
2018-07-08T06:00:19.106Z,49.41
2018-07-08T06:01:19.108Z,49.51
2018-07-08T06:02:19.117Z,49.32
2018-07-08T06:03:19.122Z,49.39
2018-07-08T06:04:19.127Z,49.87
2018-07-08T06:05:19.141Z,49.78
2018-07-08T06:06:19.147Z,49.76
2018-07-08T06:07:19.153Z,50.58
2018-07-08T06:08:19.160Z,51.35
2018-07-08T06:09:19.162Z,51.26
2018-07-08T06:10:19.170Z,51.35
2018-07-08T06:11:19.182Z,51.67
2018-07-08T06:12:19.188Z,51.50
2018-07-08T06:13:19.190Z,51.01
2018-07-08T06:14:19.198Z,50.51
2018-07-08T06:15:19.231Z,50.73
2018-07-08T06:16:19.214Z,50.36
2018-07-08T06:17:19.224Z,49.05
2018-07-08T06:18:19.232Z,49.10
2018-07-08T06:19:19.240Z,48.27
2018-07-08T06:20:19.265Z,46.53
2018-07-08T06:21:19.248Z,45.32
2018-07-08T06:22:19.258Z,45.67
2018-07-08T06:23:19.265Z,46.20
2018-07-08T06:24:19.275Z,46.81
2018-07-08T06:25:19.285Z,47.37
2018-07-08T06:26:19.294Z,47.93
2018-07-08T06:27:19.296Z,48.54
2018-07-08T06:28:19.304Z,48.75
2018-07-08T06:29:19.317Z,48.49
2018-07-08T06:30:19.324Z,47.25
2018-07-08T06:31:19.336Z,46.51
2018-07-08T06:32:19.339Z,45.83
2018-07-08T06:33:19.344Z,45.26
2018-07-08T06:34:19.357Z,44.04
2018-07-08T06:35:19.361Z,43.53
2018-07-08T06:36:19.369Z,43.63
2018-07-08T06:37:19.383Z,42.79
2018-07-08T06:38:19.393Z,42.03
2018-07-08T06:39:19.476Z,41.27
2018-07-08T06:40:19.417Z,40.01
2018-07-08T06:41:19.415Z,40.16
2018-07-08T06:42:19.422Z,38.86
2018-07-08T06:43:19.436Z,38.37
2018-07-08T06:44:19.455Z,38.69
2018-07-08T06:45:19.452Z,39.18
2018-07-08T06:46:19.461Z,39.29
2018-07-08T06:47:19.470Z,40.06
2018-07-08T06:48:19.482Z,39.88
2018-07-08T06:49:19.496Z,40.00
2018-07-08T06:50:19.504Z,39.41
2018-07-08T06:51:19.515Z,38.92
2018-07-08T06:52:19.523Z,38.73
2018-07-08T06:53:19.530Z,39.18
2018-07-08T06:54:19.540Z,39.39
2018-07-08T06:55:19.551Z,39.70
2018-07-08T06:56:19.561Z,39.59
2018-07-08T06:57:19.577Z,39.98
2018-07-08T06:58:19.588Z,39.90
2018-07-08T06:59:19.594Z,39.31
2018-07-08T07:00:19.603Z,38.94
2018-07-08T07:01:19.618Z,39.14
2018-07-08T07:02:19.632Z,38.65
2018-07-08T07:03:19.642Z,38.65
2018-07-08T07:04:19.651Z,38.67
2018-07-08T07:05:19.658Z,38.29
2018-07-08T07:06:19.670Z,37.52
2018-07-08T07:07:19.681Z,37.25
2018-07-08T07:08:19.692Z,36.60
2018-07-08T07:09:19.707Z,35.66
2018-07-08T07:10:19.720Z,36.53
2018-07-08T07:11:19.733Z,36.09
2018-07-08T07:12:19.743Z,35.61
2018-07-08T07:13:19.751Z,36.04
2018-07-08T07:14:19.762Z,36.45
2018-07-08T07:15:19.781Z,36.08
2018-07-08T07:16:19.790Z,36.11
2018-07-08T07:17:19.820Z,35.34
2018-07-08T07:18:19.810Z,34.54
2018-07-08T07:19:19.824Z,34.56
2018-07-08T07:20:19.835Z,33.87
2018-07-08T07:21:19.853Z,33.41
2018-07-08T07:22:19.865Z,33.53
2018-07-08T07:23:19.880Z,33.31
2018-07-08T07:24:19.892Z,32.24
2018-07-08T07:25:19.899Z,32.18
2018-07-08T07:26:19.914Z,31.70
2018-07-08T07:27:19.926Z,31.23
2018-07-08T07:28:19.939Z,30.88
2018-07-08T07:29:19.958Z,30.77
2018-07-08T07:30:19.978Z,31.36
2018-07-08T07:31:19.980Z,31.64
2018-07-08T07:32:19.994Z,30.73
2018-07-08T07:33:20.013Z,32.10
2018-07-08T07:34:20.026Z,33.02
2018-07-08T07:35:20.040Z,34.52
2018-07-08T07:36:20.051Z,34.75
2018-07-08T07:37:20.121Z,34.74
2018-07-08T07:38:20.074Z,34.81
2018-07-08T07:39:20.089Z,35.24
2018-07-08T07:40:20.104Z,35.09
2018-07-08T07:41:20.122Z,35.42
2018-07-08T07:42:20.138Z,35.37
2018-07-08T07:43:20.145Z,35.00
2018-07-08T07:44:20.158Z,34.06
2018-07-08T07:45:20.177Z,33.97
2018-07-08T07:46:20.181Z,33.67
2018-07-08T07:47:20.200Z,33.36
2018-07-08T07:48:20.212Z,33.61
2018-07-08T07:49:20.223Z,33.15
2018-07-08T07:50:20.236Z,32.90
2018-07-08T07:51:20.291Z,31.85
2018-07-08T07:52:20.262Z,30.88
2018-07-08T07:53:20.282Z,30.97
2018-07-08T07:54:20.296Z,31.05
2018-07-08T07:55:20.310Z,31.13
2018-07-08T07:56:20.323Z,31.16
2018-07-08T07:57:20.332Z,31.18
2018-07-08T07:58:20.348Z,31.07
2018-07-08T07:59:20.364Z,30.59
2018-07-08T08:00:20.375Z,30.47
2018-07-08T08:01:20.398Z,30.30
2018-07-08T08:02:20.409Z,30.28
2018-07-08T08:03:20.419Z,30.74
2018-07-08T08:04:20.434Z,31.15
2018-07-08T08:05:20.452Z,31.07
2018-07-08T08:06:20.467Z,30.80
2018-07-08T08:07:20.483Z,29.55
2018-07-08T08:08:20.525Z,29.57
2018-07-08T08:09:20.508Z,29.02
2018-07-08T08:10:20.524Z,28.33
2018-07-08T08:11:20.537Z,27.65
2018-07-08T08:12:20.551Z,26.75
2018-07-08T08:13:20.573Z,26.90
2018-07-08T08:14:20.589Z,27.00
2018-07-08T08:15:20.604Z,27.56
2018-07-08T08:16:20.616Z,27.64
2018-07-08T08:17:20.632Z,28.03
2018-07-08T08:18:20.644Z,27.45
2018-07-08T08:19:20.668Z,26.90
2018-07-08T08:20:20.679Z,25.65
2018-07-08T08:21:20.692Z,25.57
2018-07-08T08:22:20.708Z,24.81
2018-07-08T08:23:20.722Z,24.20
2018-07-08T08:24:20.738Z,24.11
2018-07-08T08:25:20.762Z,23.60
2018-07-08T08:26:20.849Z,23.19
2018-07-08T08:27:20.791Z,23.18
2018-07-08T08:28:20.807Z,24.17
2018-07-08T08:29:20.818Z,24.38
2018-07-08T08:30:20.835Z,24.40
2018-07-08T08:31:20.851Z,24.14
2018-07-08T08:32:20.867Z,22.45
2018-07-08T08:33:20.888Z,23.11
2018-07-08T08:34:20.905Z,28.16
2018-07-08T08:35:20.917Z,28.45
2018-07-08T08:36:20.933Z,28.22
2018-07-08T08:37:20.955Z,29.20
2018-07-08T08:38:20.972Z,29.57
2018-07-08T08:39:20.987Z,29.22
2018-07-08T08:40:21.004Z,31.67
2018-07-08T08:41:21.015Z,31.47
2018-07-08T08:42:21.032Z,30.87
2018-07-08T08:43:21.049Z,31.38
2018-07-08T08:44:21.063Z,35.55
2018-07-08T08:45:21.085Z,37.15
2018-07-08T08:46:21.100Z,37.21
2018-07-08T08:47:21.118Z,33.44
2018-07-08T08:48:21.131Z,32.46
2018-07-08T08:49:21.143Z,30.73
2018-07-08T08:50:21.160Z,31.87
2018-07-08T08:51:21.181Z,29.57
2018-07-08T08:52:21.263Z,30.43
2018-07-08T08:53:21.209Z,29.17
2018-07-08T08:54:21.224Z,26.93
2018-07-08T08:55:21.239Z,25.87
2018-07-08T08:56:21.257Z,25.67
2018-07-08T08:57:21.277Z,26.13
2018-07-08T08:58:21.334Z,27.24
2018-07-08T08:59:21.313Z,27.33
2018-07-08T09:00:21.326Z,26.02
2018-07-08T09:01:21.340Z,26.70
2018-07-08T09:02:21.357Z,28.42
2018-07-08T09:03:21.375Z,30.73
2018-07-08T09:04:21.391Z,31.51
2018-07-08T09:05:21.412Z,32.23
2018-07-08T09:06:21.431Z,31.92
2018-07-08T09:07:21.443Z,29.90
2018-07-08T09:08:21.459Z,28.14
2018-07-08T09:09:21.481Z,26.99
2018-07-08T09:10:21.498Z,29.30
2018-07-08T09:11:21.516Z,29.31
2018-07-08T09:12:21.533Z,31.07
2018-07-08T09:13:21.545Z,31.26
2018-07-08T09:14:21.562Z,31.46
2018-07-08T09:15:21.580Z,31.84
2018-07-08T09:16:21.597Z,30.18
2018-07-08T09:17:21.700Z,30.95
2018-07-08T09:18:21.636Z,31.16
2018-07-08T09:19:21.655Z,30.27
2018-07-08T09:20:21.672Z,30.65
2018-07-08T09:21:21.686Z,29.97
2018-07-08T09:22:21.703Z,28.61
2018-07-08T09:23:21.725Z,27.91
2018-07-08T09:24:21.743Z,28.36
2018-07-08T09:25:21.756Z,28.55
2018-07-08T09:26:21.777Z,29.34
2018-07-08T09:27:21.793Z,29.75
2018-07-08T09:28:21.808Z,29.79
2018-07-08T09:29:21.841Z,29.30
2018-07-08T09:30:21.847Z,29.51
2018-07-08T09:31:21.865Z,28.54
2018-07-08T09:32:21.881Z,28.85
2018-07-08T09:33:21.894Z,28.69
2018-07-08T09:34:21.913Z,28.30
2018-07-08T09:35:21.929Z,29.79
2018-07-08T09:36:21.946Z,29.53
2018-07-08T09:37:21.968Z,29.63
2018-07-08T09:38:21.986Z,31.27
2018-07-08T09:39:22.006Z,31.23
2018-07-08T09:40:22.017Z,30.98
2018-07-08T09:41:22.040Z,30.04
2018-07-08T09:42:22.057Z,29.16
2018-07-08T09:43:22.075Z,28.99
2018-07-08T09:44:22.094Z,28.02
2018-07-08T09:45:22.107Z,27.91
2018-07-08T09:46:22.123Z,28.02
2018-07-08T09:47:22.141Z,27.55
2018-07-08T09:48:22.160Z,27.47
2018-07-08T09:49:22.182Z,26.67
2018-07-08T09:50:22.203Z,27.35
2018-07-08T09:51:22.218Z,26.78
2018-07-08T09:52:22.235Z,26.70
2018-07-08T09:53:22.251Z,26.86
2018-07-08T09:54:22.267Z,27.56
2018-07-08T09:55:22.296Z,27.59
2018-07-08T09:56:22.309Z,27.06
2018-07-08T09:57:22.324Z,27.57
2018-07-08T09:58:22.343Z,28.89
2018-07-08T09:59:22.363Z,30.30
2018-07-08T10:00:22.381Z,30.77
2018-07-08T10:01:22.404Z,31.04
2018-07-08T10:02:22.424Z,32.02
2018-07-08T10:03:22.444Z,31.77
2018-07-08T10:04:22.461Z,31.23
2018-07-08T10:05:22.474Z,30.26
2018-07-08T10:06:22.492Z,29.21
2018-07-08T10:07:22.512Z,29.11
2018-07-08T10:08:22.530Z,28.72
2018-07-08T10:09:22.553Z,28.74
2018-07-08T10:10:22.572Z,30.21
2018-07-08T10:11:22.587Z,30.15
2018-07-08T10:12:22.603Z,30.26
2018-07-08T10:13:22.627Z,29.57
2018-07-08T10:14:22.646Z,29.21
2018-07-08T10:15:22.666Z,28.05
2018-07-08T10:16:22.735Z,28.47
2018-07-08T10:17:22.697Z,29.72
2018-07-08T10:18:22.733Z,30.97
2018-07-08T10:19:22.792Z,32.14
2018-07-08T10:20:22.753Z,32.54
2018-07-08T10:21:22.812Z,31.88
2018-07-08T10:22:22.797Z,31.48
2018-07-08T10:23:22.814Z,30.88
2018-07-08T10:24:22.832Z,31.07
2018-07-08T10:25:22.851Z,31.63
2018-07-08T10:26:22.865Z,32.15
2018-07-08T10:27:22.890Z,31.73
2018-07-08T10:28:22.906Z,32.62
2018-07-08T10:29:22.920Z,31.94
2018-07-08T10:30:22.997Z,33.00
2018-07-08T10:31:22.957Z,32.97
2018-07-08T10:32:22.975Z,34.92
2018-07-08T10:33:23.002Z,33.65
2018-07-08T10:34:23.016Z,32.64
2018-07-08T10:35:23.033Z,32.48
2018-07-08T10:36:23.054Z,33.84
2018-07-08T10:37:23.064Z,32.74
2018-07-08T10:38:23.089Z,33.25
2018-07-08T10:39:23.100Z,32.56
2018-07-08T10:40:23.115Z,33.62
2018-07-08T10:41:23.142Z,33.14
2018-07-08T10:42:23.156Z,33.04
2018-07-08T10:43:23.185Z,33.89
2018-07-08T10:44:23.186Z,34.69
2018-07-08T10:45:23.206Z,34.54
2018-07-08T10:46:23.225Z,34.36
2018-07-08T10:47:23.245Z,34.51
2018-07-08T10:48:23.257Z,34.92
2018-07-08T10:49:23.270Z,34.70
2018-07-08T10:50:23.287Z,34.51
2018-07-08T10:51:23.304Z,33.67
2018-07-08T10:52:23.320Z,32.59
2018-07-08T10:53:23.342Z,33.85
2018-07-08T10:54:23.362Z,33.77
2018-07-08T10:55:23.379Z,32.50
2018-07-08T10:56:23.391Z,33.10
2018-07-08T10:57:23.408Z,34.38
2018-07-08T10:58:23.421Z,35.06
2018-07-08T10:59:23.442Z,35.65
2018-07-08T11:00:23.459Z,35.97
2018-07-08T11:01:23.472Z,34.92
2018-07-08T11:02:23.488Z,34.16
2018-07-08T11:03:23.504Z,33.49
2018-07-08T11:04:23.521Z,33.05
2018-07-08T11:05:23.542Z,32.97
2018-07-08T11:06:23.558Z,33.34
2018-07-08T11:07:23.574Z,33.25
2018-07-08T11:08:23.590Z,34.11
2018-07-08T11:09:23.601Z,33.65
2018-07-08T11:10:23.618Z,33.46
2018-07-08T11:11:23.635Z,33.65
2018-07-08T11:12:23.650Z,33.56
2018-07-08T11:13:23.670Z,33.46
2018-07-08T11:14:23.687Z,34.33
2018-07-08T11:15:23.698Z,34.42
2018-07-08T11:16:23.714Z,34.34
2018-07-08T11:17:23.734Z,34.93
2018-07-08T11:18:23.753Z,35.94
2018-07-08T11:19:23.768Z,37.00
2018-07-08T11:20:23.784Z,37.23
2018-07-08T11:21:23.794Z,36.94
2018-07-08T11:22:23.812Z,37.18
2018-07-08T11:23:23.827Z,38.22
2018-07-08T11:24:23.843Z,38.59
2018-07-08T11:25:23.864Z,39.28
2018-07-08T11:26:23.878Z,39.43
2018-07-08T11:27:23.897Z,40.70
2018-07-08T11:28:23.910Z,41.11
2018-07-08T11:29:23.919Z,40.41
2018-07-08T11:30:23.933Z,40.72
2018-07-08T11:31:23.951Z,41.36
2018-07-08T11:32:23.965Z,41.36
2018-07-08T11:33:23.974Z,42.41
2018-07-08T11:34:23.988Z,42.34
2018-07-08T11:35:24.001Z,42.02
2018-07-08T11:36:24.011Z,41.25
2018-07-08T11:37:24.038Z,41.85
2018-07-08T11:38:24.041Z,42.94
2018-07-08T11:39:24.054Z,44.10
2018-07-08T11:40:24.061Z,44.10
2018-07-08T11:41:24.072Z,44.01
2018-07-08T11:42:24.078Z,44.49
2018-07-08T11:43:24.090Z,43.93
2018-07-08T11:44:24.097Z,44.13
2018-07-08T11:45:24.112Z,44.05
2018-07-08T11:46:24.125Z,42.57
2018-07-08T11:47:24.127Z,42.63
2018-07-08T11:48:24.134Z,42.21
2018-07-08T11:49:24.149Z,42.58
2018-07-08T11:50:24.160Z,42.49
2018-07-08T11:51:24.163Z,43.87
2018-07-08T11:52:24.170Z,43.96
2018-07-08T11:53:24.173Z,43.79
2018-07-08T11:54:24.181Z,43.48
2018-07-08T11:55:24.280Z,43.44
2018-07-08T11:56:24.197Z,43.40
2018-07-08T11:57:24.207Z,45.12
2018-07-08T11:58:24.215Z,45.82
2018-07-08T11:59:24.224Z,46.23
2018-07-08T12:00:24.235Z,45.38
2018-07-08T12:01:24.234Z,45.09
2018-07-08T12:02:24.238Z,44.89
2018-07-08T12:03:24.248Z,44.78
2018-07-08T12:04:24.253Z,44.87
2018-07-08T12:05:24.259Z,44.38
2018-07-08T12:06:24.316Z,45.18
2018-07-08T12:07:24.268Z,45.67
2018-07-08T12:08:24.271Z,44.89
2018-07-08T12:09:24.283Z,44.70
2018-07-08T12:10:24.310Z,44.31
2018-07-08T12:11:24.293Z,43.90
2018-07-08T12:12:24.298Z,44.29
2018-07-08T12:13:24.299Z,44.99
2018-07-08T12:14:24.362Z,45.18
2018-07-08T12:15:24.316Z,45.21
2018-07-08T12:16:24.322Z,44.82
2018-07-08T12:17:24.327Z,44.70
2018-07-08T12:18:24.335Z,44.58
2018-07-08T12:19:24.332Z,45.36
2018-07-08T12:20:24.336Z,45.77
2018-07-08T12:21:24.348Z,46.15
2018-07-08T12:22:24.352Z,46.37
2018-07-08T12:23:24.357Z,46.37
2018-07-08T12:24:24.362Z,46.78
2018-07-08T12:25:24.369Z,46.30
2018-07-08T12:26:24.369Z,46.30
2018-07-08T12:27:24.373Z,46.23
2018-07-08T12:28:24.377Z,46.51
2018-07-08T12:29:24.387Z,46.32
2018-07-08T12:30:24.393Z,46.32
2018-07-08T12:31:24.399Z,46.51
2018-07-08T12:32:24.404Z,46.03
2018-07-08T12:33:24.405Z,46.42
2018-07-08T12:34:24.411Z,45.25
2018-07-08T12:35:24.420Z,43.77
2018-07-08T12:36:24.425Z,43.67
2018-07-08T12:37:24.425Z,44.06
2018-07-08T12:38:24.432Z,44.74
2018-07-08T12:39:24.436Z,44.57
2018-07-08T12:40:24.453Z,45.35
2018-07-08T12:41:24.452Z,45.47
2018-07-08T12:42:24.456Z,45.08
2018-07-08T12:43:24.463Z,44.20
2018-07-08T12:44:24.517Z,45.06
2018-07-08T12:45:24.468Z,44.20
2018-07-08T12:46:24.474Z,43.48
2018-07-08T12:47:24.479Z,45.04
2018-07-08T12:48:24.484Z,45.23
2018-07-08T12:49:24.494Z,43.75
2018-07-08T12:50:24.502Z,43.82
2018-07-08T12:51:24.510Z,44.89
2018-07-08T12:52:24.505Z,45.60